Baltimore, MD (21206)

23:09 EDT le 25 août 2016 (GMT -0400)
Thompson - Parkville | | Change Station

Alt. 330 ft 39.36 °N, 76.54 °W | Updated 9 minutes ago

Scattered Clouds
Nuages épars
79.5 ° F
Paraît 84 ° F
N
2.2
Vent Variable Vent de SSO

Aujourd'hui
Haut(e) -- | Bas -- ° F
--% Risque de précip.
Hier
Haut(e) -- | Bas -- ° F
Precip. -- pouce
Pression 30.01 pouce
Visibilité 10.0 Miles terrestres
Nuages Nuages épars 25000 ft
indice de chaleur 84 ° F
Point de rosée 74 ° F
Humidité 84%
Précipitations 0.00 pouce
Profondeur de la couche neigeuse Non disponible.
6:28 AM 7:46 PM
Dernier quartier, 39% visible
METAR KBWI 260254Z 22003KT 10SM SCT250 26/22 A3001 RMK AO2 SLP161 T02610222 58001
Pression 30.01 pouce
Visibilité 10.0 Miles terrestres
Nuages Nuages épars 25000 ft
indice de chaleur 84 ° F
Point de rosée 74 ° F
Humidité 84%
Précipitations 0.00 pouce
Profondeur de la couche neigeuse Non disponible.
6:28 AM 7:46 PM
Dernier quartier, 39% visible
METAR KBWI 260254Z 22003KT 10SM SCT250 26/22 A3001 RMK AO2 SLP161 T02610222 58001
A tropical disturbance pushing toward the Bahamas, is expected to develop into a tropical depression or storm, and will likely target Florida and the Gulf Coast this weekend into next week.

Right now, the disturbance remains a broad area of low pressure pushing through the Dominican Republic and Haiti, headed toward the southeast Bahamas. Rainfall totals over 3 inches (with locally higher amounts) are expected in Hispañiola, particularly over elevated terrain.

10-Day Weather Forecast

Almanac

Astronomie

Aug. 25, 2016 Lever Coucher
Temps réel
Crépuscule civil
Crépuscule nautique
Crépuscule astronomique
Lune
Durée de lumière visible
Longueur du jour
Tomorrow will be .
, % of the Moon is Illuminated

Extrêmes aujourd'hui

State Highs State Lows

Community

WunderPhotos

Upload Photos

1,935,036 Photos téléchargées !

WunderBlog® & News

Nearby

Qualité de l'air

  Qualité de l'air Indice de la qualité de l'air Polluant
Not available.

Épaisseur de neige

Station Depth Altitude

Activité sismique

Ville Distance Mag. Time & Date
Minimum magnitude displayed is 2.5.

Températures des eaux côtières

Lieu Température

Stations

Stations météo à proximité

Emplacement de la station Température Refroidissement éolien Point de rosée Humidité Vent Precip. Alt. Mise à jour Type
                   

Watches & Warnings

There are currently no watches in effect.